sensor_id;sensor_type;location;lat;lon;timestamp;pressure;altitude;pressure_sealevel;temperature;humidity
62025;BME280;47978;49.118;12.146;2022-11-15T00:01:15;97525.00;;;2.49;94.51
62025;BME280;47978;49.118;12.146;2022-11-15T00:03:43;97525.00;;;2.49;94.64
62025;BME280;47978;49.118;12.146;2022-11-15T00:06:09;97525.81;;;2.50;94.28
62025;BME280;47978;49.118;12.146;2022-11-15T00:08:35;97518.88;;;2.42;94.63
62025;BME280;47978;49.118;12.146;2022-11-15T00:11:02;97521.31;;;2.38;94.66
62025;BME280;47978;49.118;12.146;2022-11-15T00:13:29;97519.97;;;2.41;94.70
62025;BME280;47978;49.118;12.146;2022-11-15T00:15:56;97507.97;;;2.42;94.85
62025;BME280;47978;49.118;12.146;2022-11-15T00:18:23;97511.56;;;2.42;94.96
62025;BME280;47978;49.118;12.146;2022-11-15T00:20:50;97512.63;;;2.41;94.80
62025;BME280;47978;49.118;12.146;2022-11-15T00:23:17;97516.63;;;2.34;94.89
62025;BME280;47978;49.118;12.146;2022-11-15T00:25:43;97515.53;;;2.35;95.03
62025;BME280;47978;49.118;12.146;2022-11-15T00:28:09;97514.22;;;2.37;94.99
62025;BME280;47978;49.118;12.146;2022-11-15T00:30:36;97513.03;;;2.33;95.24
62025;BME280;47978;49.118;12.146;2022-11-15T00:33:02;97512.75;;;2.30;94.90
62025;BME280;47978;49.118;12.146;2022-11-15T00:35:30;97512.22;;;2.33;95.02
62025;BME280;47978;49.118;12.146;2022-11-15T00:37:59;97512.22;;;2.33;95.13
62025;BME280;47978;49.118;12.146;2022-11-15T00:40:26;97511.91;;;2.29;94.84
62025;BME280;47978;49.118;12.146;2022-11-15T00:42:52;97517.69;;;2.33;94.99
62025;BME280;47978;49.118;12.146;2022-11-15T00:45:19;97505.94;;;2.32;94.75
62025;BME280;47978;49.118;12.146;2022-11-15T00:47:45;97499.31;;;2.45;94.32
62025;BME280;47978;49.118;12.146;2022-11-15T00:50:12;97492.44;;;2.42;94.70
62025;BME280;47978;49.118;12.146;2022-11-15T00:52:40;97500.06;;;2.40;94.64
62025;BME280;47978;49.118;12.146;2022-11-15T00:55:09;97494.59;;;2.40;95.15
62025;BME280;47978;49.118;12.146;2022-11-15T00:57:39;97493.00;;;2.44;95.09
62025;BME280;47978;49.118;12.146;2022-11-15T01:00:06;97481.78;;;2.41;94.92
62025;BME280;47978;49.118;12.146;2022-11-15T01:02:32;97485.59;;;2.40;95.29
62025;BME280;47978;49.118;12.146;2022-11-15T01:04:59;97480.66;;;2.37;95.67
62025;BME280;47978;49.118;12.146;2022-11-15T01:07:25;97480.66;;;2.37;95.75
62025;BME280;47978;49.118;12.146;2022-11-15T01:09:52;97480.06;;;2.35;95.22
62025;BME280;47978;49.118;12.146;2022-11-15T01:12:19;97474.22;;;2.26;95.19
62025;BME280;47978;49.118;12.146;2022-11-15T01:14:46;97464.88;;;2.22;95.06
62025;BME280;47978;49.118;12.146;2022-11-15T01:17:12;97472.84;;;2.23;95.10
62025;BME280;47978;49.118;12.146;2022-11-15T01:19:38;97469.53;;;2.21;95.12
62025;BME280;47978;49.118;12.146;2022-11-15T01:22:05;97468.47;;;2.22;95.11
62025;BME280;47978;49.118;12.146;2022-11-15T01:24:31;97468.38;;;2.17;94.84
62025;BME280;47978;49.118;12.146;2022-11-15T01:26:57;97468.59;;;2.11;94.86
62025;BME280;47978;49.118;12.146;2022-11-15T01:29:25;97473.69;;;2.07;95.10
62025;BME280;47978;49.118;12.146;2022-11-15T01:31:52;97465.78;;;2.06;95.11
62025;BME280;47978;49.118;12.146;2022-11-15T01:34:19;97467.94;;;2.03;94.92
62025;BME280;47978;49.118;12.146;2022-11-15T01:36:45;97465.63;;;1.95;94.77
62025;BME280;47978;49.118;12.146;2022-11-15T01:39:11;97464.81;;;1.95;94.82
62025;BME280;47978;49.118;12.146;2022-11-15T01:41:38;97461.34;;;1.99;94.57
62025;BME280;47978;49.118;12.146;2022-11-15T01:46:50;97465.25;;;1.87;94.47
62025;BME280;47978;49.118;12.146;2022-11-15T01:49:17;97453.25;;;1.88;94.16
62025;BME280;47978;49.118;12.146;2022-11-15T01:51:45;97456.16;;;1.81;94.57
62025;BME280;47978;49.118;12.146;2022-11-15T01:54:13;97442.28;;;1.83;94.37
62025;BME280;47978;49.118;12.146;2022-11-15T01:56:42;97445.34;;;1.86;94.28
62025;BME280;47978;49.118;12.146;2022-11-15T01:59:10;97445.34;;;1.86;94.55
62025;BME280;47978;49.118;12.146;2022-11-15T02:01:37;97440.97;;;1.85;94.35
62025;BME280;47978;49.118;12.146;2022-11-15T02:04:06;97434.16;;;1.88;94.46
62025;BME280;47978;49.118;12.146;2022-11-15T02:06:34;97432.59;;;1.92;94.23
62025;BME280;47978;49.118;12.146;2022-11-15T02:09:02;97424.72;;;1.95;94.26
62025;BME280;47978;49.118;12.146;2022-11-15T02:11:28;97423.84;;;1.90;94.41
62025;BME280;47978;49.118;12.146;2022-11-15T02:13:55;97422.13;;;1.84;94.74
62025;BME280;47978;49.118;12.146;2022-11-15T02:16:25;97412.53;;;1.81;94.58
62025;BME280;47978;49.118;12.146;2022-11-15T02:18:55;97421.03;;;1.85;94.30
62025;BME280;47978;49.118;12.146;2022-11-15T02:21:27;97408.25;;;1.85;94.14
62025;BME280;47978;49.118;12.146;2022-11-15T02:24:05;97403.19;;;1.94;92.91
62025;BME280;47978;49.118;12.146;2022-11-15T02:26:40;97405.38;;;1.75;93.86
62025;BME280;47978;49.118;12.146;2022-11-15T02:29:12;97406.38;;;1.69;93.98
62025;BME280;47978;49.118;12.146;2022-11-15T02:31:44;97398.63;;;1.61;94.27
62025;BME280;47978;49.118;12.146;2022-11-15T02:34:16;97410.13;;;1.63;94.24
62025;BME280;47978;49.118;12.146;2022-11-15T02:36:48;97407.41;;;1.85;92.71
62025;BME280;47978;49.118;12.146;2022-11-15T02:39:17;97402.66;;;1.75;93.13
62025;BME280;47978;49.118;12.146;2022-11-15T02:41:46;97404.47;;;1.69;93.07
62025;BME280;47978;49.118;12.146;2022-11-15T02:44:15;97404.91;;;1.61;93.52
62025;BME280;47978;49.118;12.146;2022-11-15T02:46:47;97391.38;;;1.49;93.80
62025;BME280;47978;49.118;12.146;2022-11-15T02:49:16;97401.47;;;1.49;94.08
62025;BME280;47978;49.118;12.146;2022-11-15T02:51:42;97392.41;;;1.43;93.76
62025;BME280;47978;49.118;12.146;2022-11-15T02:54:11;97392.28;;;1.55;93.24
62025;BME280;47978;49.118;12.146;2022-11-15T02:56:38;97387.78;;;1.44;93.78
62025;BME280;47978;49.118;12.146;2022-11-15T02:59:13;97394.53;;;1.41;94.34
62025;BME280;47978;49.118;12.146;2022-11-15T03:01:49;97388.75;;;1.54;93.98
62025;BME280;47978;49.118;12.146;2022-11-15T03:04:23;97384.06;;;1.72;93.46
62025;BME280;47978;49.118;12.146;2022-11-15T03:06:57;97381.47;;;1.60;94.00
62025;BME280;47978;49.118;12.146;2022-11-15T03:09:28;97386.53;;;1.51;94.32
62025;BME280;47978;49.118;12.146;2022-11-15T03:12:00;97381.00;;;1.46;94.96
62025;BME280;47978;49.118;12.146;2022-11-15T03:14:30;97377.94;;;1.60;94.98
62025;BME280;47978;49.118;12.146;2022-11-15T03:17:04;97378.41;;;1.56;94.83
62025;BME280;47978;49.118;12.146;2022-11-15T03:19:32;97378.16;;;1.58;94.73
62025;BME280;47978;49.118;12.146;2022-11-15T03:22:00;97379.63;;;1.66;94.57
62025;BME280;47978;49.118;12.146;2022-11-15T03:24:29;97378.91;;;1.53;94.70
62025;BME280;47978;49.118;12.146;2022-11-15T03:26:59;97378.84;;;1.48;94.55
62025;BME280;47978;49.118;12.146;2022-11-15T03:29:29;97387.34;;;1.52;94.34
62025;BME280;47978;49.118;12.146;2022-11-15T03:31:58;97380.81;;;1.53;94.24
62025;BME280;47978;49.118;12.146;2022-11-15T03:34:29;97379.91;;;1.47;93.99
62025;BME280;47978;49.118;12.146;2022-11-15T03:36:57;97375.53;;;1.46;93.83
62025;BME280;47978;49.118;12.146;2022-11-15T03:39:23;97374.34;;;1.59;93.06
62025;BME280;47978;49.118;12.146;2022-11-15T03:41:54;97372.28;;;1.66;92.37
62025;BME280;47978;49.118;12.146;2022-11-15T03:44:26;97378.94;;;1.75;91.18
62025;BME280;47978;49.118;12.146;2022-11-15T03:46:58;97370.06;;;1.63;91.23
62025;BME280;47978;49.118;12.146;2022-11-15T03:49:29;97371.19;;;1.45;92.06
62025;BME280;47978;49.118;12.146;2022-11-15T03:51:57;97371.53;;;1.32;92.76
62025;BME280;47978;49.118;12.146;2022-11-15T03:54:24;97377.56;;;1.34;92.77
62025;BME280;47978;49.118;12.146;2022-11-15T03:56:50;97377.22;;;1.30;92.80
62025;BME280;47978;49.118;12.146;2022-11-15T03:59:17;97371.88;;;1.19;93.04
62025;BME280;47978;49.118;12.146;2022-11-15T04:01:43;97370.63;;;1.09;93.67
62025;BME280;47978;49.118;12.146;2022-11-15T04:04:09;97360.56;;;1.10;93.48
62025;BME280;47978;49.118;12.146;2022-11-15T04:06:37;97364.28;;;1.04;93.45
62025;BME280;47978;49.118;12.146;2022-11-15T04:09:04;97369.63;;;1.16;93.19
62025;BME280;47978;49.118;12.146;2022-11-15T04:11:30;97361.31;;;1.05;93.30
62025;BME280;47978;49.118;12.146;2022-11-15T04:13:56;97359.66;;;1.04;93.45
62025;BME280;47978;49.118;12.146;2022-11-15T04:16:23;97356.94;;;1.04;93.54
62025;BME280;47978;49.118;12.146;2022-11-15T04:18:49;97347.25;;;1.30;92.22
62025;BME280;47978;49.118;12.146;2022-11-15T04:21:15;97349.81;;;1.37;90.89
62025;BME280;47978;49.118;12.146;2022-11-15T04:23:43;97349.50;;;1.17;91.98
62025;BME280;47978;49.118;12.146;2022-11-15T04:26:10;97335.72;;;1.23;91.44
62025;BME280;47978;49.118;12.146;2022-11-15T04:28:37;97334.72;;;1.29;90.49
62025;BME280;47978;49.118;12.146;2022-11-15T04:31:04;97331.59;;;1.21;90.93
62025;BME280;47978;49.118;12.146;2022-11-15T04:33:30;97331.16;;;1.29;90.52
62025;BME280;47978;49.118;12.146;2022-11-15T04:35:57;97322.69;;;1.25;90.10
62025;BME280;47978;49.118;12.146;2022-11-15T04:38:23;97324.34;;;1.09;90.94
62025;BME280;47978;49.118;12.146;2022-11-15T04:40:51;97322.53;;;0.98;92.05
62025;BME280;47978;49.118;12.146;2022-11-15T04:43:18;97329.88;;;1.15;91.46
62025;BME280;47978;49.118;12.146;2022-11-15T04:45:44;97328.56;;;1.17;91.49
62025;BME280;47978;49.118;12.146;2022-11-15T04:48:10;97335.13;;;1.21;92.27
62025;BME280;47978;49.118;12.146;2022-11-15T04:50:37;97333.50;;;1.20;92.21
62025;BME280;47978;49.118;12.146;2022-11-15T04:53:03;97337.28;;;1.19;93.00
62025;BME280;47978;49.118;12.146;2022-11-15T04:55:29;97340.19;;;1.12;93.58
62025;BME280;47978;49.118;12.146;2022-11-15T04:58:00;97344.22;;;1.10;94.26
62025;BME280;47978;49.118;12.146;2022-11-15T05:00:27;97337.38;;;1.07;94.54
62025;BME280;47978;49.118;12.146;2022-11-15T05:02:54;97338.66;;;1.00;95.27
62025;BME280;47978;49.118;12.146;2022-11-15T05:05:20;97339.19;;;1.02;95.33
62025;BME280;47978;49.118;12.146;2022-11-15T05:07:47;97337.47;;;1.12;95.20
62025;BME280;47978;49.118;12.146;2022-11-15T05:10:13;97333.66;;;1.13;94.27
62025;BME280;47978;49.118;12.146;2022-11-15T05:12:39;97328.56;;;1.00;95.05
62025;BME280;47978;49.118;12.146;2022-11-15T05:15:08;97332.22;;;0.89;95.91
62025;BME280;47978;49.118;12.146;2022-11-15T05:17:34;97326.50;;;0.90;96.29
62025;BME280;47978;49.118;12.146;2022-11-15T05:20:01;97325.44;;;0.92;96.08
62025;BME280;47978;49.118;12.146;2022-11-15T05:22:27;97326.50;;;0.90;96.36
62025;BME280;47978;49.118;12.146;2022-11-15T05:24:53;97326.91;;;0.99;96.02
62025;BME280;47978;49.118;12.146;2022-11-15T05:27:20;97318.50;;;1.01;95.58
62025;BME280;47978;49.118;12.146;2022-11-15T05:29:46;97316.50;;;0.96;95.53
62025;BME280;47978;49.118;12.146;2022-11-15T05:32:14;97305.63;;;0.96;95.10
62025;BME280;47978;49.118;12.146;2022-11-15T05:34:41;97307.03;;;0.99;94.74
62025;BME280;47978;49.118;12.146;2022-11-15T05:37:08;97306.00;;;1.22;93.24
62025;BME280;47978;49.118;12.146;2022-11-15T05:39:34;97310.53;;;1.33;92.61
62025;BME280;47978;49.118;12.146;2022-11-15T05:42:01;97311.94;;;1.19;93.32
62025;BME280;47978;49.118;12.146;2022-11-15T05:44:30;97305.78;;;1.06;93.99
62025;BME280;47978;49.118;12.146;2022-11-15T05:46:57;97308.13;;;0.98;94.85
62025;BME280;47978;49.118;12.146;2022-11-15T05:49:26;97303.25;;;1.00;94.92
62025;BME280;47978;49.118;12.146;2022-11-15T05:51:55;97301.28;;;0.95;95.22
62025;BME280;47978;49.118;12.146;2022-11-15T05:54:22;97291.94;;;0.91;95.39
62025;BME280;47978;49.118;12.146;2022-11-15T05:56:49;97294.81;;;1.01;95.15
62025;BME280;47978;49.118;12.146;2022-11-15T05:59:15;97306.94;;;1.10;94.44
62025;BME280;47978;49.118;12.146;2022-11-15T06:01:42;97307.59;;;1.18;94.63
62025;BME280;47978;49.118;12.146;2022-11-15T06:04:09;97310.22;;;1.12;94.84
62025;BME280;47978;49.118;12.146;2022-11-15T06:06:37;97305.97;;;1.00;96.10
62025;BME280;47978;49.118;12.146;2022-11-15T06:09:03;97306.03;;;1.05;96.00
62025;BME280;47978;49.118;12.146;2022-11-15T06:11:29;97311.25;;;1.06;95.94
62025;BME280;47978;49.118;12.146;2022-11-15T06:13:56;97314.97;;;1.00;96.55
62025;BME280;47978;49.118;12.146;2022-11-15T06:16:22;97312.06;;;0.90;96.84
62025;BME280;47978;49.118;12.146;2022-11-15T06:18:48;97302.59;;;0.93;96.61
62025;BME280;47978;49.118;12.146;2022-11-15T06:21:15;97306.44;;;0.97;96.37
62025;BME280;47978;49.118;12.146;2022-11-15T06:23:43;97304.41;;;0.87;96.18
62025;BME280;47978;49.118;12.146;2022-11-15T06:26:09;97296.25;;;0.87;96.58
62025;BME280;47978;49.118;12.146;2022-11-15T06:28:35;97301.59;;;0.82;96.83
62025;BME280;47978;49.118;12.146;2022-11-15T06:31:02;97294.91;;;0.89;95.78
62025;BME280;47978;49.118;12.146;2022-11-15T06:33:29;97297.47;;;0.79;95.51
62025;BME280;47978;49.118;12.146;2022-11-15T06:35:56;97290.78;;;0.87;95.15
62025;BME280;47978;49.118;12.146;2022-11-15T06:38:25;97290.16;;;0.80;94.84
62025;BME280;47978;49.118;12.146;2022-11-15T06:40:53;97278.59;;;0.73;94.85
62025;BME280;47978;49.118;12.146;2022-11-15T06:43:20;97282.53;;;0.82;94.27
62025;BME280;47978;49.118;12.146;2022-11-15T06:45:46;97274.66;;;0.80;94.62
62025;BME280;47978;49.118;12.146;2022-11-15T06:48:13;97271.53;;;0.72;94.70
62025;BME280;47978;49.118;12.146;2022-11-15T06:50:40;97274.88;;;0.96;93.63
62025;BME280;47978;49.118;12.146;2022-11-15T06:53:06;97274.22;;;0.88;94.12
62025;BME280;47978;49.118;12.146;2022-11-15T06:55:33;97282.22;;;0.95;93.96
62025;BME280;47978;49.118;12.146;2022-11-15T06:58:00;97280.38;;;1.01;93.70
62025;BME280;47978;49.118;12.146;2022-11-15T07:00:27;97282.84;;;1.02;93.71
62025;BME280;47978;49.118;12.146;2022-11-15T07:02:53;97296.50;;;1.24;92.35
62025;BME280;47978;49.118;12.146;2022-11-15T07:05:19;97307.13;;;1.43;91.66
62025;BME280;47978;49.118;12.146;2022-11-15T07:07:50;97312.22;;;1.39;91.53
62025;BME280;47978;49.118;12.146;2022-11-15T07:10:17;97325.34;;;1.42;92.65
62025;BME280;47978;49.118;12.146;2022-11-15T07:12:46;97319.59;;;1.39;93.42
62025;BME280;47978;49.118;12.146;2022-11-15T07:15:14;97320.56;;;1.49;93.33
62025;BME280;47978;49.118;12.146;2022-11-15T07:17:40;97323.34;;;1.54;92.85
62025;BME280;47978;49.118;12.146;2022-11-15T07:20:07;97317.59;;;1.51;93.56
62025;BME280;47978;49.118;12.146;2022-11-15T07:22:33;97312.88;;;1.46;93.62
62025;BME280;47978;49.118;12.146;2022-11-15T07:25:00;97311.47;;;1.44;94.09
62025;BME280;47978;49.118;12.146;2022-11-15T07:27:26;97318.75;;;1.38;94.30
62025;BME280;47978;49.118;12.146;2022-11-15T07:29:53;97317.50;;;1.46;94.35
62025;BME280;47978;49.118;12.146;2022-11-15T07:32:20;97323.03;;;1.51;94.62
62025;BME280;47978;49.118;12.146;2022-11-15T07:34:47;97312.53;;;1.60;94.23
62025;BME280;47978;49.118;12.146;2022-11-15T07:37:13;97309.81;;;1.60;94.66
62025;BME280;47978;49.118;12.146;2022-11-15T07:39:40;97301.44;;;1.66;94.58
62025;BME280;47978;49.118;12.146;2022-11-15T07:42:06;97302.88;;;1.74;94.34
62025;BME280;47978;49.118;12.146;2022-11-15T07:44:32;97304.00;;;1.78;94.07
62025;BME280;47978;49.118;12.146;2022-11-15T07:46:59;97303.44;;;1.76;94.16
62025;BME280;47978;49.118;12.146;2022-11-15T07:49:26;97303.25;;;1.83;94.14
62025;BME280;47978;49.118;12.146;2022-11-15T07:51:53;97302.09;;;1.78;94.69
62025;BME280;47978;49.118;12.146;2022-11-15T07:54:19;97292.34;;;1.83;94.17
62025;BME280;47978;49.118;12.146;2022-11-15T07:56:45;97298.41;;;1.90;94.08
62025;BME280;47978;49.118;12.146;2022-11-15T07:59:12;97297.72;;;1.99;93.78
62025;BME280;47978;49.118;12.146;2022-11-15T08:01:38;97299.88;;;1.97;93.69
62025;BME280;47978;49.118;12.146;2022-11-15T08:04:05;97300.41;;;1.94;93.59
62025;BME280;47978;49.118;12.146;2022-11-15T08:06:32;97299.25;;;1.90;93.54
62025;BME280;47978;49.118;12.146;2022-11-15T08:08:59;97290.19;;;1.85;93.91
62025;BME280;47978;49.118;12.146;2022-11-15T08:11:25;97291.69;;;1.97;93.71
62025;BME280;47978;49.118;12.146;2022-11-15T08:13:52;97291.19;;;2.00;93.64
62025;BME280;47978;49.118;12.146;2022-11-15T08:16:18;97289.28;;;2.01;93.63
62025;BME280;47978;49.118;12.146;2022-11-15T08:18:44;97281.16;;;2.06;93.44
62025;BME280;47978;49.118;12.146;2022-11-15T08:21:11;97279.91;;;2.19;93.28
62025;BME280;47978;49.118;12.146;2022-11-15T08:23:45;97274.22;;;2.20;93.43
62025;BME280;47978;49.118;12.146;2022-11-15T08:26:11;97274.81;;;2.28;93.34
62025;BME280;47978;49.118;12.146;2022-11-15T08:28:38;97266.72;;;2.38;93.10
62025;BME280;47978;49.118;12.146;2022-11-15T08:31:04;97267.56;;;2.38;92.85
62025;BME280;47978;49.118;12.146;2022-11-15T08:33:31;97265.50;;;2.51;92.95
62025;BME280;47978;49.118;12.146;2022-11-15T08:35:58;97267.72;;;2.54;93.15
62025;BME280;47978;49.118;12.146;2022-11-15T08:38:25;97265.38;;;2.73;93.65
62025;BME280;47978;49.118;12.146;2022-11-15T08:40:53;97254.69;;;3.03;93.94
62025;BME280;47978;49.118;12.146;2022-11-15T08:43:26;97262.72;;;3.20;93.60
62025;BME280;47978;49.118;12.146;2022-11-15T08:45:55;97253.47;;;3.31;92.82
62025;BME280;47978;49.118;12.146;2022-11-15T08:48:21;97253.03;;;3.55;92.42
62025;BME280;47978;49.118;12.146;2022-11-15T08:50:47;97262.66;;;3.73;92.41
62025;BME280;47978;49.118;12.146;2022-11-15T08:53:14;97256.16;;;3.89;91.88
62025;BME280;47978;49.118;12.146;2022-11-15T08:55:40;97256.47;;;3.93;91.64
62025;BME280;47978;49.118;12.146;2022-11-15T08:58:08;97264.38;;;3.89;91.32
62025;BME280;47978;49.118;12.146;2022-11-15T09:00:34;97257.31;;;4.03;91.66
62025;BME280;47978;49.118;12.146;2022-11-15T09:03:03;97260.06;;;4.14;91.16
62025;BME280;47978;49.118;12.146;2022-11-15T09:05:29;97261.16;;;4.18;90.20
62025;BME280;47978;49.118;12.146;2022-11-15T09:07:56;97262.56;;;4.31;90.43
62025;BME280;47978;49.118;12.146;2022-11-15T09:10:22;97252.97;;;4.43;90.05
62025;BME280;47978;49.118;12.146;2022-11-15T09:12:49;97249.16;;;4.49;89.70
62025;BME280;47978;49.118;12.146;2022-11-15T09:15:16;97249.41;;;4.38;89.73
62025;BME280;47978;49.118;12.146;2022-11-15T09:17:43;97245.84;;;4.32;90.34
62025;BME280;47978;49.118;12.146;2022-11-15T09:20:09;97233.81;;;4.38;90.21
62025;BME280;47978;49.118;12.146;2022-11-15T09:22:36;97236.28;;;4.35;89.98
62025;BME280;47978;49.118;12.146;2022-11-15T09:25:02;97230.28;;;4.27;90.46
62025;BME280;47978;49.118;12.146;2022-11-15T09:27:35;97222.03;;;4.17;90.96
62025;BME280;47978;49.118;12.146;2022-11-15T09:30:01;97224.75;;;4.02;92.08
62025;BME280;47978;49.118;12.146;2022-11-15T09:32:29;97215.16;;;4.10;92.13
62025;BME280;47978;49.118;12.146;2022-11-15T09:35:04;97216.03;;;4.10;92.46
62025;BME280;47978;49.118;12.146;2022-11-15T09:37:31;97207.81;;;4.10;92.29
62025;BME280;47978;49.118;12.146;2022-11-15T09:39:57;97207.81;;;4.10;92.42
62025;BME280;47978;49.118;12.146;2022-11-15T09:42:26;97207.00;;;4.20;92.20
62025;BME280;47978;49.118;12.146;2022-11-15T09:44:59;97208.38;;;4.33;92.50
62025;BME280;47978;49.118;12.146;2022-11-15T09:47:49;97207.81;;;4.41;93.52
62025;BME280;47978;49.118;12.146;2022-11-15T09:50:26;97193.88;;;4.47;93.54
62025;BME280;47978;49.118;12.146;2022-11-15T09:52:56;97191.13;;;4.53;93.62
62025;BME280;47978;49.118;12.146;2022-11-15T09:55:24;97191.97;;;4.53;93.49
62025;BME280;47978;49.118;12.146;2022-11-15T09:57:55;97194.94;;;4.72;93.87
62025;BME280;47978;49.118;12.146;2022-11-15T10:00:27;97185.91;;;4.71;94.31
62025;BME280;47978;49.118;12.146;2022-11-15T10:03:13;97178.22;;;4.79;94.11
62025;BME280;47978;49.118;12.146;2022-11-15T10:05:41;97180.13;;;4.83;94.00
62025;BME280;47978;49.118;12.146;2022-11-15T10:08:15;97177.13;;;4.90;93.91
62025;BME280;47978;49.118;12.146;2022-11-15T10:10:47;97178.50;;;4.87;93.61
62025;BME280;47978;49.118;12.146;2022-11-15T10:13:16;97177.88;;;5.06;93.55
62025;BME280;47978;49.118;12.146;2022-11-15T10:15:46;97171.31;;;5.07;94.10
62025;BME280;47978;49.118;12.146;2022-11-15T10:18:17;97160.31;;;5.17;93.86
62025;BME280;47978;49.118;12.146;2022-11-15T10:20:47;97164.66;;;5.28;93.72
62025;BME280;47978;49.118;12.146;2022-11-15T10:23:14;97164.91;;;5.37;94.11
62025;BME280;47978;49.118;12.146;2022-11-15T10:25:41;97158.34;;;5.38;94.08
62025;BME280;47978;49.118;12.146;2022-11-15T10:28:09;97157.75;;;5.41;93.91
62025;BME280;47978;49.118;12.146;2022-11-15T10:30:38;97144.31;;;5.45;93.87
62025;BME280;47978;49.118;12.146;2022-11-15T10:35:54;97133.59;;;5.48;93.14
62025;BME280;47978;49.118;12.146;2022-11-15T10:38:49;97130.56;;;5.50;93.19
62025;BME280;47978;49.118;12.146;2022-11-15T10:41:17;97120.91;;;5.57;92.76
62025;BME280;47978;49.118;12.146;2022-11-15T10:43:44;97119.25;;;5.61;92.62
62025;BME280;47978;49.118;12.146;2022-11-15T10:46:16;97113.19;;;5.70;92.70
62025;BME280;47978;49.118;12.146;2022-11-15T10:49:12;97106.56;;;5.76;92.85
62025;BME280;47978;49.118;12.146;2022-11-15T10:51:41;97109.53;;;5.79;92.69
62025;BME280;47978;49.118;12.146;2022-11-15T10:54:09;97088.38;;;5.85;92.94
62025;BME280;47978;49.118;12.146;2022-11-15T10:56:41;97083.44;;;5.87;92.93
62025;BME280;47978;49.118;12.146;2022-11-15T10:59:14;97076.53;;;5.95;93.15
62025;BME280;47978;49.118;12.146;2022-11-15T11:01:45;97065.78;;;6.03;93.32
62025;BME280;47978;49.118;12.146;2022-11-15T11:04:12;97061.88;;;6.10;93.46
62025;BME280;47978;49.118;12.146;2022-11-15T11:06:47;97046.66;;;6.22;93.33
62025;BME280;47978;49.118;12.146;2022-11-15T11:09:22;97050.69;;;6.30;93.05
62025;BME280;47978;49.118;12.146;2022-11-15T11:11:51;97037.16;;;6.39;92.97
62025;BME280;47978;49.118;12.146;2022-11-15T11:14:19;97038.19;;;6.43;92.88
62025;BME280;47978;49.118;12.146;2022-11-15T11:16:47;97036.75;;;6.50;93.24
62025;BME280;47978;49.118;12.146;2022-11-15T11:19:21;97025.13;;;6.59;93.38
62025;BME280;47978;49.118;12.146;2022-11-15T11:21:54;97025.03;;;6.69;93.21
62025;BME280;47978;49.118;12.146;2022-11-15T11:24:25;97018.00;;;6.82;93.26
62025;BME280;47978;49.118;12.146;2022-11-15T11:26:59;97017.34;;;6.90;93.13
62025;BME280;47978;49.118;12.146;2022-11-15T11:29:33;97022.13;;;7.03;93.03
62025;BME280;47978;49.118;12.146;2022-11-15T11:32:05;97010.53;;;7.25;93.09
62025;BME280;47978;49.118;12.146;2022-11-15T11:34:40;97023.09;;;7.31;91.87
62025;BME280;47978;49.118;12.146;2022-11-15T11:37:12;97008.03;;;7.48;91.53
62025;BME280;47978;49.118;12.146;2022-11-15T11:39:42;97001.25;;;7.59;90.98
62025;BME280;47978;49.118;12.146;2022-11-15T11:42:13;97000.97;;;7.60;90.53
62025;BME280;47978;49.118;12.146;2022-11-15T11:44:50;96998.63;;;7.68;90.42
62025;BME280;47978;49.118;12.146;2022-11-15T11:47:19;96989.19;;;7.74;90.18
62025;BME280;47978;49.118;12.146;2022-11-15T11:49:49;96987.69;;;7.81;89.81
62025;BME280;47978;49.118;12.146;2022-11-15T11:52:18;96979.56;;;7.90;89.63
62025;BME280;47978;49.118;12.146;2022-11-15T11:54:51;96971.28;;;7.90;89.72
62025;BME280;47978;49.118;12.146;2022-11-15T11:57:22;96968.97;;;7.97;89.51
62025;BME280;47978;49.118;12.146;2022-11-15T11:59:52;96967.78;;;8.03;89.72
62025;BME280;47978;49.118;12.146;2022-11-15T12:02:21;96963.47;;;8.11;89.74
62025;BME280;47978;49.118;12.146;2022-11-15T12:04:51;96966.97;;;8.30;89.45
62025;BME280;47978;49.118;12.146;2022-11-15T12:07:29;96960.50;;;8.40;88.89
62025;BME280;47978;49.118;12.146;2022-11-15T12:09:58;96960.41;;;8.45;89.21
62025;BME280;47978;49.118;12.146;2022-11-15T12:12:27;96953.56;;;8.56;89.04
62025;BME280;47978;49.118;12.146;2022-11-15T12:14:57;96956.63;;;8.69;88.91
62025;BME280;47978;49.118;12.146;2022-11-15T12:17:26;96949.97;;;8.84;88.15
62025;BME280;47978;49.118;12.146;2022-11-15T12:19:55;96950.78;;;8.98;87.09
62025;BME280;47978;49.118;12.146;2022-11-15T12:22:33;96944.44;;;8.97;87.00
62025;BME280;47978;49.118;12.146;2022-11-15T12:25:04;96939.31;;;9.05;86.63
62025;BME280;47978;49.118;12.146;2022-11-15T12:27:32;96936.25;;;9.06;86.60
62025;BME280;47978;49.118;12.146;2022-11-15T12:30:02;96930.13;;;9.09;86.32
62025;BME280;47978;49.118;12.146;2022-11-15T12:32:31;96922.47;;;9.06;86.53
62025;BME280;47978;49.118;12.146;2022-11-15T12:34:58;96922.28;;;9.03;86.94
62025;BME280;47978;49.118;12.146;2022-11-15T12:40:18;96918.56;;;9.07;87.19
62025;BME280;47978;49.118;12.146;2022-11-15T12:42:56;96912.44;;;9.10;87.15
62025;BME280;47978;49.118;12.146;2022-11-15T12:45:24;96910.19;;;9.12;87.16
62025;BME280;47978;49.118;12.146;2022-11-15T12:47:51;96902.53;;;9.09;87.60
62025;BME280;47978;49.118;12.146;2022-11-15T12:50:21;96902.94;;;9.16;87.60
62025;BME280;47978;49.118;12.146;2022-11-15T12:53:27;96910.59;;;9.19;87.51
62025;BME280;47978;49.118;12.146;2022-11-15T12:58:48;96896.88;;;9.28;87.76
62025;BME280;47978;49.118;12.146;2022-11-15T13:06:48;96881.13;;;9.29;86.93
62025;BME280;47978;49.118;12.146;2022-11-15T13:11:59;96881.69;;;9.39;87.89
62025;BME280;47978;49.118;12.146;2022-11-15T13:14:41;96885.25;;;9.40;86.73
62025;BME280;47978;49.118;12.146;2022-11-15T13:17:17;96880.09;;;9.47;86.37
62025;BME280;47978;49.118;12.146;2022-11-15T13:19:52;96876.28;;;9.57;86.10
62025;BME280;47978;49.118;12.146;2022-11-15T13:22:19;96877.09;;;9.57;86.30
62025;BME280;47978;49.118;12.146;2022-11-15T13:24:45;96880.38;;;9.59;86.19
62025;BME280;47978;49.118;12.146;2022-11-15T13:27:13;96881.00;;;9.56;86.47